createdAt,value
2022-10-10T00:01:16.032Z,4.03
2022-10-10T00:03:33.083Z,4.00
2022-10-10T00:05:50.036Z,4.47
2022-10-10T00:08:06.976Z,4.82
2022-10-10T00:10:23.950Z,4.78
2022-10-10T00:12:40.876Z,4.30
2022-10-10T00:14:57.779Z,4.50
2022-10-10T00:17:14.764Z,4.60
2022-10-10T00:19:31.702Z,5.00
2022-10-10T00:21:49.716Z,4.60
2022-10-10T00:24:06.634Z,4.63
2022-10-10T00:26:23.575Z,4.13
2022-10-10T00:28:40.515Z,4.97
2022-10-10T00:30:57.489Z,4.90
2022-10-10T00:33:14.400Z,5.00
2022-10-10T00:35:31.372Z,5.00
2022-10-10T00:37:48.279Z,4.85
2022-10-10T00:40:05.199Z,5.43
2022-10-10T00:42:22.152Z,4.25
2022-10-10T00:44:39.080Z,5.05
2022-10-10T00:46:56.035Z,4.80
2022-10-10T00:49:12.967Z,4.68
2022-10-10T00:51:29.859Z,5.03
2022-10-10T00:53:46.839Z,4.57
2022-10-10T00:56:03.647Z,4.05
2022-10-10T00:58:20.571Z,4.18
2022-10-10T01:00:37.556Z,3.97
2022-10-10T01:02:54.515Z,4.50
2022-10-10T01:05:11.380Z,4.40
2022-10-10T01:07:28.280Z,4.25
2022-10-10T01:09:45.229Z,4.28
2022-10-10T01:12:02.098Z,4.30
2022-10-10T01:14:19.032Z,4.40
2022-10-10T01:16:35.954Z,4.40
2022-10-10T01:18:52.976Z,4.13
2022-10-10T01:21:09.944Z,4.40
2022-10-10T01:23:26.809Z,3.90
2022-10-10T01:25:43.672Z,4.20
2022-10-10T01:28:00.593Z,4.38
2022-10-10T01:30:17.528Z,3.85
2022-10-10T01:32:34.409Z,4.10
2022-10-10T01:34:51.341Z,4.07
2022-10-10T01:37:08.254Z,4.00
2022-10-10T01:39:25.163Z,4.43
2022-10-10T01:41:42.079Z,3.83
2022-10-10T01:43:58.963Z,3.80
2022-10-10T01:46:15.934Z,4.32
2022-10-10T01:48:32.814Z,3.90
2022-10-10T01:50:49.811Z,4.07
2022-10-10T01:53:06.755Z,3.80
2022-10-10T01:55:23.715Z,4.05
2022-10-10T01:57:40.618Z,3.97
2022-10-10T01:59:57.511Z,3.90
2022-10-10T02:02:14.416Z,4.00
2022-10-10T02:04:31.363Z,3.95
2022-10-10T02:06:48.286Z,3.67
2022-10-10T02:09:05.243Z,3.85
2022-10-10T02:11:22.176Z,3.65
2022-10-10T02:13:39.079Z,3.60
2022-10-10T02:15:55.989Z,3.95
2022-10-10T02:18:12.843Z,4.00
2022-10-10T02:20:29.702Z,4.13
2022-10-10T02:22:48.946Z,3.90
2022-10-10T02:25:06.174Z,4.03
2022-10-10T02:27:23.013Z,3.95
2022-10-10T02:29:39.853Z,4.00
2022-10-10T02:31:56.675Z,4.15
2022-10-10T02:34:13.570Z,4.15
2022-10-10T02:36:30.380Z,3.60
2022-10-10T02:38:47.193Z,3.72
2022-10-10T02:41:04.039Z,3.80
2022-10-10T02:43:20.937Z,3.70
2022-10-10T02:45:37.785Z,3.90
2022-10-10T02:47:54.823Z,3.80
2022-10-10T02:50:11.670Z,3.85
2022-10-10T02:52:28.550Z,3.65
2022-10-10T02:54:45.423Z,3.92
2022-10-10T02:57:02.211Z,3.70
2022-10-10T02:59:19.073Z,4.10
2022-10-10T03:01:35.943Z,3.30
2022-10-10T03:03:52.781Z,3.85
2022-10-10T03:06:09.649Z,3.58
2022-10-10T03:08:26.532Z,3.83
2022-10-10T03:10:43.401Z,3.50
2022-10-10T03:13:00.415Z,3.55
2022-10-10T03:15:17.324Z,3.63
2022-10-10T03:17:34.233Z,3.90
2022-10-10T03:19:51.057Z,4.13
2022-10-10T03:22:07.906Z,3.53
2022-10-10T03:24:24.719Z,3.85
2022-10-10T03:26:41.567Z,3.80
2022-10-10T03:28:58.441Z,3.80
2022-10-10T03:31:15.283Z,3.90
2022-10-10T03:33:32.193Z,3.92
2022-10-10T03:35:49.036Z,3.67
2022-10-10T03:38:05.940Z,3.47
2022-10-10T03:40:22.788Z,4.05
2022-10-10T03:42:39.654Z,3.53
2022-10-10T03:44:56.520Z,3.90
2022-10-10T03:47:13.346Z,3.60
2022-10-10T03:49:30.206Z,3.63
2022-10-10T03:51:47.088Z,3.70
2022-10-10T03:54:03.921Z,3.65
2022-10-10T03:56:20.820Z,3.78
2022-10-10T03:58:37.659Z,4.00
2022-10-10T04:00:54.530Z,3.83
2022-10-10T04:03:11.427Z,3.58
2022-10-10T04:05:28.247Z,3.60
2022-10-10T04:07:45.100Z,3.88
2022-10-10T04:10:01.904Z,3.67
2022-10-10T04:12:18.767Z,3.60
2022-10-10T04:14:35.594Z,3.70
2022-10-10T04:16:52.540Z,3.90
2022-10-10T04:19:09.429Z,3.70
2022-10-10T04:21:26.261Z,3.65
2022-10-10T04:23:43.151Z,3.90
2022-10-10T04:26:00.035Z,3.45
2022-10-10T04:28:17.005Z,3.45
2022-10-10T04:30:33.868Z,3.47
2022-10-10T04:32:51.035Z,3.53
2022-10-10T04:35:08.003Z,3.88
2022-10-10T04:37:24.828Z,3.92
2022-10-10T04:39:41.686Z,3.30
2022-10-10T04:41:58.579Z,3.80
2022-10-10T04:44:15.425Z,3.85
2022-10-10T04:46:32.237Z,3.67
2022-10-10T04:48:49.067Z,3.97
2022-10-10T04:51:05.943Z,4.13
2022-10-10T04:53:22.819Z,4.05
2022-10-10T04:55:39.653Z,4.15
2022-10-10T04:57:56.548Z,4.05
2022-10-10T05:00:13.445Z,4.28
2022-10-10T05:02:30.258Z,3.83
2022-10-10T05:04:47.130Z,4.43
2022-10-10T05:07:03.966Z,4.03
2022-10-10T05:09:20.811Z,3.72
2022-10-10T05:11:37.624Z,3.95
2022-10-10T05:13:54.489Z,3.70
2022-10-10T05:16:11.324Z,4.10
2022-10-10T05:18:28.197Z,3.80
2022-10-10T05:20:45.046Z,4.00
2022-10-10T05:23:01.929Z,3.67
2022-10-10T05:25:18.759Z,4.20
2022-10-10T05:27:35.616Z,4.00
2022-10-10T05:29:52.457Z,4.20
2022-10-10T05:32:10.520Z,4.40
2022-10-10T05:34:27.607Z,3.92
2022-10-10T05:36:44.515Z,3.90
2022-10-10T05:39:01.424Z,4.15
2022-10-10T05:41:18.290Z,4.20
2022-10-10T05:43:35.119Z,4.47
2022-10-10T05:45:51.983Z,4.43
2022-10-10T05:48:08.854Z,4.20
2022-10-10T05:50:25.737Z,4.28
2022-10-10T05:52:42.600Z,4.75
2022-10-10T05:54:59.614Z,4.32
2022-10-10T05:57:16.688Z,4.70
2022-10-10T05:59:33.627Z,4.10
2022-10-10T06:01:50.460Z,4.85
2022-10-10T06:04:07.354Z,4.97
2022-10-10T06:06:24.191Z,5.00
2022-10-10T06:08:41.076Z,7.78
2022-10-10T06:10:57.907Z,6.57
2022-10-10T06:13:14.771Z,10.52
2022-10-10T06:15:31.645Z,20.05
2022-10-10T06:17:48.498Z,12.52
2022-10-10T06:20:05.523Z,10.90
2022-10-10T06:22:22.390Z,13.07
2022-10-10T06:24:39.215Z,9.70
2022-10-10T06:26:56.072Z,9.10
2022-10-10T06:29:12.879Z,6.35
2022-10-10T06:31:29.743Z,5.85
2022-10-10T06:33:46.549Z,5.10
2022-10-10T06:36:03.416Z,5.00
2022-10-10T06:38:20.267Z,5.40
2022-10-10T06:40:37.142Z,5.35
2022-10-10T06:42:54.433Z,5.75
2022-10-10T06:45:11.469Z,5.63
2022-10-10T06:47:28.294Z,5.40
2022-10-10T06:49:45.543Z,5.22
2022-10-10T06:52:02.441Z,5.68
2022-10-10T06:54:19.341Z,5.80
2022-10-10T06:56:36.167Z,5.38
2022-10-10T06:58:53.086Z,5.40
2022-10-10T07:01:10.141Z,5.20
2022-10-10T07:03:27.006Z,5.57
2022-10-10T07:05:44.138Z,5.72
2022-10-10T07:08:00.984Z,6.00
2022-10-10T07:10:17.827Z,5.75
2022-10-10T07:12:42.058Z,6.07
2022-10-10T07:15:01.194Z,5.75
2022-10-10T07:17:18.096Z,6.10
2022-10-10T07:19:34.925Z,5.30
2022-10-10T07:21:51.844Z,5.57
2022-10-10T07:24:08.866Z,6.03
2022-10-10T07:26:25.837Z,6.07
2022-10-10T07:28:42.669Z,5.45
2022-10-10T07:30:59.622Z,5.93
2022-10-10T07:33:16.604Z,6.25
2022-10-10T07:35:33.498Z,6.60
2022-10-10T07:37:50.391Z,6.20
2022-10-10T07:40:07.256Z,9.05
2022-10-10T07:42:24.103Z,7.65
2022-10-10T07:44:40.937Z,7.03
2022-10-10T07:46:57.831Z,6.75
2022-10-10T07:49:14.640Z,6.63
2022-10-10T07:51:31.530Z,6.10
2022-10-10T07:53:48.450Z,5.72
2022-10-10T07:56:05.350Z,6.05
2022-10-10T07:58:22.181Z,5.82
2022-10-10T08:00:39.062Z,5.90
2022-10-10T08:02:55.942Z,6.00
2022-10-10T08:05:12.843Z,5.68
2022-10-10T08:07:29.688Z,5.85
2022-10-10T08:09:46.549Z,5.88
2022-10-10T08:12:03.377Z,5.68
2022-10-10T08:14:20.363Z,7.80
2022-10-10T08:16:37.229Z,6.10
2022-10-10T08:18:54.083Z,6.68
2022-10-10T08:21:10.947Z,6.63
2022-10-10T08:23:27.854Z,6.65
2022-10-10T08:25:44.685Z,6.68
2022-10-10T08:28:01.507Z,6.68
2022-10-10T08:30:18.372Z,6.43
2022-10-10T08:32:35.237Z,6.45
2022-10-10T08:34:52.075Z,6.53
2022-10-10T08:37:08.906Z,6.07
2022-10-10T08:39:25.803Z,6.10
2022-10-10T08:41:42.657Z,6.28
2022-10-10T08:43:59.527Z,6.18
2022-10-10T08:46:16.355Z,6.07
2022-10-10T08:48:33.234Z,5.75
2022-10-10T08:50:50.067Z,5.93
2022-10-10T08:53:06.941Z,5.65
2022-10-10T08:55:23.790Z,5.20
2022-10-10T08:57:40.689Z,5.20
2022-10-10T08:59:57.521Z,4.53
2022-10-10T09:02:18.526Z,5.07
2022-10-10T09:04:37.057Z,4.75
2022-10-10T09:06:53.924Z,5.28
2022-10-10T09:09:10.771Z,4.68
2022-10-10T09:11:27.670Z,4.60
2022-10-10T09:13:44.560Z,4.22
2022-10-10T09:16:01.443Z,4.88
2022-10-10T09:18:18.267Z,4.78
2022-10-10T09:20:35.139Z,4.57
2022-10-10T09:22:51.946Z,4.53
2022-10-10T09:25:08.836Z,4.30
2022-10-10T09:27:25.721Z,4.68
2022-10-10T09:29:42.581Z,4.13
2022-10-10T09:31:59.433Z,4.30
2022-10-10T09:34:16.329Z,4.18
2022-10-10T09:36:33.204Z,4.50
2022-10-10T09:38:50.049Z,4.10
2022-10-10T09:41:06.975Z,4.43
2022-10-10T09:43:23.859Z,5.30
2022-10-10T09:45:40.711Z,4.90
2022-10-10T09:47:57.543Z,4.28
2022-10-10T09:50:14.398Z,4.10
2022-10-10T09:52:31.275Z,4.20
2022-10-10T09:54:48.125Z,3.85
2022-10-10T09:57:04.988Z,3.97
2022-10-10T09:59:21.895Z,4.60
2022-10-10T10:01:38.837Z,4.38
2022-10-10T10:04:02.540Z,4.13
2022-10-10T10:06:28.170Z,3.90
2022-10-10T10:08:49.795Z,4.05
2022-10-10T10:11:06.806Z,3.70
2022-10-10T10:13:23.650Z,3.78
2022-10-10T10:15:40.548Z,3.97
2022-10-10T10:17:57.456Z,4.18
2022-10-10T10:20:14.355Z,3.85
2022-10-10T10:22:31.175Z,4.00
2022-10-10T10:24:48.000Z,3.70
2022-10-10T10:27:04.882Z,3.60
2022-10-10T10:29:21.771Z,3.63
2022-10-10T10:31:42.671Z,3.85
2022-10-10T10:34:01.494Z,3.90
2022-10-10T10:36:18.332Z,4.20
2022-10-10T10:38:35.284Z,3.97
2022-10-10T10:40:52.128Z,3.45
2022-10-10T10:43:09.067Z,3.72
2022-10-10T10:45:25.937Z,3.95
2022-10-10T10:47:42.783Z,3.80
2022-10-10T10:49:59.671Z,3.55
2022-10-10T10:52:16.492Z,3.78
2022-10-10T10:54:35.289Z,3.60
2022-10-10T10:56:58.867Z,3.30
2022-10-10T10:59:41.692Z,3.40
2022-10-10T11:02:00.745Z,3.40
2022-10-10T11:05:17.849Z,3.60
2022-10-10T11:07:17.440Z,3.63
2022-10-10T11:09:48.984Z,3.58
2022-10-10T11:12:06.763Z,3.60
2022-10-10T11:14:23.637Z,3.45
2022-10-10T11:16:48.891Z,3.30
2022-10-10T11:19:06.290Z,3.80
2022-10-10T11:21:23.128Z,3.15
2022-10-10T11:23:39.989Z,3.30
2022-10-10T11:25:56.825Z,3.45
2022-10-10T11:28:13.722Z,3.58
2022-10-10T11:30:30.627Z,3.45
2022-10-10T11:32:47.496Z,3.47
2022-10-10T11:35:04.399Z,3.40
2022-10-10T11:37:21.266Z,3.65
2022-10-10T11:39:38.101Z,3.65
2022-10-10T11:41:54.978Z,3.50
2022-10-10T11:44:11.855Z,3.72
2022-10-10T11:46:28.654Z,3.78
2022-10-10T11:48:45.831Z,3.40
2022-10-10T11:51:02.715Z,3.35
2022-10-10T11:53:19.614Z,3.97
2022-10-10T11:55:36.449Z,3.30
2022-10-10T11:57:53.332Z,3.20
2022-10-10T12:00:10.220Z,3.97
2022-10-10T12:02:28.025Z,3.60
2022-10-10T12:04:45.110Z,3.53
2022-10-10T12:07:02.019Z,3.65
2022-10-10T12:09:18.900Z,3.60
2022-10-10T12:11:35.814Z,4.05
2022-10-10T12:13:52.714Z,3.35
2022-10-10T12:16:09.530Z,3.92
2022-10-10T12:18:26.372Z,3.75
2022-10-10T12:20:43.223Z,3.58
2022-10-10T12:23:00.060Z,3.40
2022-10-10T12:25:16.967Z,3.70
2022-10-10T12:27:33.809Z,3.80
2022-10-10T12:29:51.462Z,3.90
2022-10-10T12:32:08.393Z,3.45
2022-10-10T12:34:25.272Z,3.13
2022-10-10T12:36:42.109Z,3.92
2022-10-10T12:39:00.810Z,3.72
2022-10-10T12:41:17.753Z,3.17
2022-10-10T12:43:34.581Z,3.85
2022-10-10T12:45:51.408Z,3.72
2022-10-10T12:48:08.293Z,3.33
2022-10-10T12:50:25.133Z,3.33
2022-10-10T12:52:42.030Z,3.40
2022-10-10T12:55:00.479Z,3.38
2022-10-10T12:57:20.127Z,3.50
2022-10-10T12:59:36.978Z,3.30
2022-10-10T13:01:53.953Z,2.97
2022-10-10T13:04:10.823Z,3.58
2022-10-10T13:06:27.691Z,3.17
2022-10-10T13:08:44.615Z,3.08
2022-10-10T13:11:01.770Z,3.55
2022-10-10T13:13:18.756Z,3.88
2022-10-10T13:15:35.652Z,2.80
2022-10-10T13:17:52.482Z,3.03
2022-10-10T13:20:09.319Z,3.20
2022-10-10T13:22:26.171Z,3.50
2022-10-10T13:24:43.036Z,3.20
2022-10-10T13:26:59.898Z,3.25
2022-10-10T13:29:18.336Z,3.90
2022-10-10T13:31:35.171Z,3.60
2022-10-10T13:33:52.068Z,3.65
2022-10-10T13:36:08.937Z,3.30
2022-10-10T13:38:25.762Z,3.50
2022-10-10T13:40:42.601Z,3.67
2022-10-10T13:42:59.460Z,3.88
2022-10-10T13:45:16.320Z,3.58
2022-10-10T13:47:33.154Z,3.60
2022-10-10T13:49:50.010Z,3.72
2022-10-10T13:52:06.894Z,3.42
2022-10-10T13:54:23.728Z,3.63
2022-10-10T13:56:41.530Z,3.40
2022-10-10T13:58:58.558Z,3.53
2022-10-10T14:01:15.482Z,3.80
2022-10-10T14:03:32.414Z,3.42
2022-10-10T14:05:49.283Z,4.07
2022-10-10T14:08:06.202Z,3.70
2022-10-10T14:10:23.024Z,3.38
2022-10-10T14:12:39.888Z,3.50
2022-10-10T14:14:56.739Z,3.90
2022-10-10T14:17:13.595Z,3.80
2022-10-10T14:19:30.466Z,3.30
2022-10-10T14:21:47.293Z,3.33
2022-10-10T14:24:04.183Z,3.65
2022-10-10T14:26:21.013Z,3.60
2022-10-10T14:28:38.120Z,3.47
2022-10-10T14:30:55.139Z,4.35
2022-10-10T14:33:12.019Z,3.85
2022-10-10T14:35:29.103Z,3.80
2022-10-10T14:37:46.055Z,3.88
2022-10-10T14:40:02.999Z,3.42
2022-10-10T14:42:19.886Z,3.63
2022-10-10T14:44:36.774Z,3.67
2022-10-10T14:46:53.653Z,3.45
2022-10-10T14:49:13.109Z,4.30
2022-10-10T14:51:34.518Z,3.85
2022-10-10T14:54:11.772Z,3.83
2022-10-10T14:57:09.082Z,4.40
2022-10-10T14:59:05.929Z,3.90
2022-10-10T15:01:22.765Z,4.15
2022-10-10T15:03:39.627Z,4.03
2022-10-10T15:05:56.480Z,4.25
2022-10-10T15:08:13.319Z,4.18
2022-10-10T15:10:34.578Z,4.20
2022-10-10T15:12:52.110Z,3.75
2022-10-10T15:15:08.932Z,3.95
2022-10-10T15:17:25.795Z,4.00
2022-10-10T15:19:42.626Z,3.97
2022-10-10T15:21:59.472Z,3.75
2022-10-10T15:24:16.337Z,3.88
2022-10-10T15:26:33.353Z,3.63
2022-10-10T15:28:50.290Z,3.72
2022-10-10T15:31:07.193Z,3.72
2022-10-10T15:33:24.027Z,4.20
2022-10-10T15:36:04.353Z,3.38
2022-10-10T15:38:17.709Z,3.72
2022-10-10T15:40:34.546Z,4.45
2022-10-10T15:42:51.407Z,4.13
2022-10-10T15:45:08.280Z,3.80
2022-10-10T15:47:25.337Z,4.82
2022-10-10T15:49:42.224Z,3.97
2022-10-10T15:51:59.096Z,4.65
2022-10-10T15:54:15.977Z,4.72
2022-10-10T15:56:32.825Z,5.40
2022-10-10T15:58:49.672Z,5.90
2022-10-10T16:01:06.863Z,6.63
2022-10-10T16:03:23.837Z,5.72
2022-10-10T16:05:40.688Z,5.25
2022-10-10T16:07:57.539Z,6.20
2022-10-10T16:10:14.418Z,6.00
2022-10-10T16:12:31.286Z,6.47
2022-10-10T16:14:48.157Z,5.88
2022-10-10T16:17:05.004Z,6.40
2022-10-10T16:19:21.933Z,6.95
2022-10-10T16:21:38.759Z,6.15
2022-10-10T16:23:58.075Z,6.53
2022-10-10T16:26:15.367Z,8.93
2022-10-10T16:28:32.330Z,7.78
2022-10-10T16:30:49.213Z,6.63
2022-10-10T16:33:06.071Z,7.25
2022-10-10T16:35:22.922Z,6.57
2022-10-10T16:37:39.785Z,7.78
2022-10-10T16:39:56.604Z,7.32
2022-10-10T16:42:13.502Z,7.28
2022-10-10T16:44:30.351Z,6.88
2022-10-10T16:46:47.254Z,6.43
2022-10-10T16:49:04.220Z,6.70
2022-10-10T16:51:21.078Z,6.57
2022-10-10T16:53:37.931Z,6.60
2022-10-10T16:55:54.794Z,6.88
2022-10-10T16:58:11.655Z,6.68
2022-10-10T17:00:28.518Z,6.40
2022-10-10T17:02:45.365Z,7.47
2022-10-10T17:05:02.273Z,6.90
2022-10-10T17:07:19.137Z,6.93
2022-10-10T17:09:35.998Z,6.72
2022-10-10T17:11:52.842Z,6.53
2022-10-10T17:14:09.932Z,6.97
2022-10-10T17:19:03.717Z,6.85
2022-10-10T17:21:20.615Z,7.55
2022-10-10T17:23:37.450Z,7.18
2022-10-10T17:25:54.267Z,7.45
2022-10-10T17:28:11.194Z,7.65
2022-10-10T17:30:28.030Z,7.63
2022-10-10T17:32:44.839Z,6.90
2022-10-10T17:35:01.728Z,7.55
2022-10-10T17:37:18.557Z,8.35
2022-10-10T17:39:35.409Z,7.53
2022-10-10T17:41:52.326Z,7.57
2022-10-10T17:44:09.224Z,7.72
2022-10-10T17:46:35.398Z,7.47
2022-10-10T17:48:53.363Z,7.18
2022-10-10T17:51:10.232Z,8.38
2022-10-10T17:53:27.115Z,8.57
2022-10-10T17:55:43.967Z,7.95
2022-10-10T17:58:00.855Z,8.48
2022-10-10T18:00:17.782Z,8.77
2022-10-10T18:02:34.650Z,8.73
2022-10-10T18:04:51.567Z,7.95
2022-10-10T18:07:08.449Z,8.18
2022-10-10T18:09:25.285Z,7.22
2022-10-10T18:11:42.364Z,7.78
2022-10-10T18:13:59.263Z,7.72
2022-10-10T18:16:16.119Z,7.82
2022-10-10T18:18:32.952Z,7.70
2022-10-10T18:20:49.823Z,7.68
2022-10-10T18:23:06.692Z,8.27
2022-10-10T18:25:25.192Z,7.97
2022-10-10T18:27:42.258Z,8.25
2022-10-10T18:29:59.076Z,8.25
2022-10-10T18:32:15.935Z,7.93
2022-10-10T18:34:32.841Z,7.10
2022-10-10T18:36:49.666Z,7.35
2022-10-10T18:39:06.535Z,7.80
2022-10-10T18:41:23.342Z,8.50
2022-10-10T18:43:40.219Z,8.23
2022-10-10T18:45:57.104Z,8.70
2022-10-10T18:48:13.973Z,8.88
2022-10-10T18:50:30.788Z,7.63
2022-10-10T18:52:47.634Z,8.57
2022-10-10T18:55:04.509Z,7.43
2022-10-10T18:57:21.350Z,7.45
2022-10-10T18:59:38.216Z,7.50
2022-10-10T19:01:55.108Z,7.63
2022-10-10T19:04:12.001Z,6.75
2022-10-10T19:06:28.806Z,6.60
2022-10-10T19:08:45.694Z,6.90
2022-10-10T19:11:02.983Z,6.25
2022-10-10T19:13:20.163Z,6.53
2022-10-10T19:15:37.004Z,6.28
2022-10-10T19:17:53.876Z,6.68
2022-10-10T19:20:10.742Z,6.07
2022-10-10T19:22:27.631Z,5.82
2022-10-10T19:24:44.560Z,5.80
2022-10-10T19:27:01.480Z,6.30
2022-10-10T19:29:18.350Z,5.20
2022-10-10T19:31:35.181Z,5.70
2022-10-10T19:33:52.104Z,6.40
2022-10-10T19:36:08.977Z,5.20
2022-10-10T19:38:25.812Z,5.82
2022-10-10T19:40:42.833Z,5.00
2022-10-10T19:43:00.349Z,5.43
2022-10-10T19:45:17.422Z,5.60
2022-10-10T19:47:34.274Z,5.90
2022-10-10T19:49:51.092Z,6.25
2022-10-10T19:52:07.963Z,5.57
2022-10-10T19:54:24.837Z,5.30
2022-10-10T19:56:41.654Z,5.38
2022-10-10T19:58:58.542Z,5.82
2022-10-10T20:01:15.483Z,5.07
2022-10-10T20:03:32.380Z,5.68
2022-10-10T20:05:49.250Z,5.70
2022-10-10T20:08:06.137Z,5.65
2022-10-10T20:10:23.019Z,5.30
2022-10-10T20:12:40.198Z,4.95
2022-10-10T20:14:57.201Z,5.80
2022-10-10T20:17:14.041Z,5.47
2022-10-10T20:19:31.138Z,6.07
2022-10-10T20:21:48.058Z,5.40
2022-10-10T20:24:04.977Z,5.50
2022-10-10T20:26:21.938Z,5.38
2022-10-10T20:28:38.899Z,5.32
2022-10-10T20:30:55.882Z,6.20
2022-10-10T20:33:15.338Z,4.85
2022-10-10T20:35:32.237Z,5.40
2022-10-10T20:37:49.248Z,5.55
2022-10-10T20:40:06.270Z,5.45
2022-10-10T20:42:23.218Z,5.40
2022-10-10T20:44:40.083Z,5.50
2022-10-10T20:46:57.040Z,5.82
2022-10-10T20:49:13.966Z,6.18
2022-10-10T20:51:32.133Z,5.53
2022-10-10T20:53:52.352Z,4.93
2022-10-10T20:56:11.601Z,5.65
2022-10-10T20:58:28.614Z,5.70
2022-10-10T21:00:45.531Z,5.18
2022-10-10T21:03:02.551Z,5.38
2022-10-10T21:05:19.508Z,5.50
2022-10-10T21:07:37.397Z,5.75
2022-10-10T21:09:54.278Z,5.30
2022-10-10T21:12:11.193Z,5.38
2022-10-10T21:14:28.120Z,5.07
2022-10-10T21:16:45.042Z,5.22
2022-10-10T21:19:05.072Z,5.13
2022-10-10T21:21:22.030Z,5.03
2022-10-10T21:23:38.999Z,5.22
2022-10-10T21:25:55.941Z,5.50
2022-10-10T21:28:12.886Z,5.95
2022-10-10T21:30:29.846Z,6.43
2022-10-10T21:32:46.696Z,5.70
2022-10-10T21:35:03.601Z,5.82
2022-10-10T21:37:20.567Z,5.20
2022-10-10T21:39:37.485Z,6.15
2022-10-10T21:41:54.437Z,6.72
2022-10-10T21:44:11.421Z,5.45
2022-10-10T21:46:29.815Z,5.60
2022-10-10T21:48:49.355Z,4.95
2022-10-10T21:51:06.280Z,5.43
2022-10-10T21:53:23.305Z,5.35
2022-10-10T21:55:40.172Z,6.22
2022-10-10T21:57:57.067Z,5.75
2022-10-10T22:00:13.997Z,5.57
2022-10-10T22:02:30.928Z,5.80
2022-10-10T22:04:47.794Z,5.60
2022-10-10T22:07:04.833Z,5.50
2022-10-10T22:09:21.784Z,5.25
2022-10-10T22:11:38.689Z,4.65
2022-10-10T22:13:55.780Z,5.03
2022-10-10T22:16:12.715Z,5.90
2022-10-10T22:18:29.624Z,6.10
2022-10-10T22:20:46.584Z,6.63
2022-10-10T22:23:03.524Z,6.82
2022-10-10T22:25:20.502Z,7.60
2022-10-10T22:27:37.419Z,7.57
2022-10-10T22:29:54.346Z,7.53
2022-10-10T22:32:11.332Z,7.95
2022-10-10T22:34:28.293Z,7.25
2022-10-10T22:36:45.258Z,6.63
2022-10-10T22:39:02.320Z,7.00
2022-10-10T22:41:19.237Z,6.72
2022-10-10T22:43:36.237Z,6.57
2022-10-10T22:45:53.174Z,6.93
2022-10-10T22:48:10.139Z,7.57
2022-10-10T22:50:26.967Z,7.50
2022-10-10T22:52:43.828Z,7.15
2022-10-10T22:55:00.691Z,6.85
2022-10-10T22:57:17.526Z,7.50
2022-10-10T22:59:34.406Z,7.28
2022-10-10T23:01:51.262Z,6.65
2022-10-10T23:04:08.174Z,8.98
2022-10-10T23:06:25.047Z,8.32
2022-10-10T23:08:41.912Z,8.20
2022-10-10T23:10:58.760Z,7.80
2022-10-10T23:13:15.686Z,6.60
2022-10-10T23:15:32.559Z,7.60
2022-10-10T23:17:49.466Z,7.28
2022-10-10T23:20:06.353Z,6.90
2022-10-10T23:22:23.233Z,7.57
2022-10-10T23:24:40.127Z,8.30
2022-10-10T23:26:57.187Z,7.97
2022-10-10T23:29:14.060Z,7.70
2022-10-10T23:31:30.966Z,8.52
2022-10-10T23:33:47.862Z,9.77
2022-10-10T23:36:05.017Z,13.18
2022-10-10T23:38:22.112Z,23.58
2022-10-10T23:40:38.989Z,27.25
2022-10-10T23:42:55.916Z,27.52
2022-10-10T23:45:12.792Z,24.30
2022-10-10T23:47:29.682Z,26.92
2022-10-10T23:49:46.576Z,26.90
2022-10-10T23:52:03.451Z,26.80
2022-10-10T23:54:20.360Z,24.48
2022-10-10T23:56:37.214Z,19.17
2022-10-10T23:58:54.097Z,17.10
